createdAt,value
2019-03-11T00:00:04.231Z,3.38
2019-03-11T00:02:32.717Z,3.41
2019-03-11T00:05:01.097Z,3.44
2019-03-11T00:07:29.484Z,3.47
2019-03-11T00:09:57.869Z,3.48
2019-03-11T00:12:26.260Z,3.53
2019-03-11T00:14:54.632Z,3.55
2019-03-11T00:17:23.166Z,3.52
2019-03-11T00:19:51.592Z,3.42
2019-03-11T00:22:19.961Z,3.53
2019-03-11T00:24:48.341Z,3.55
2019-03-11T00:27:16.750Z,3.54
2019-03-11T00:29:45.140Z,3.53
2019-03-11T00:32:13.553Z,3.53
2019-03-11T00:34:41.904Z,3.51
2019-03-11T00:37:10.302Z,3.47
2019-03-11T00:39:38.682Z,3.45
2019-03-11T00:42:07.064Z,3.43
2019-03-11T00:44:35.446Z,3.42
2019-03-11T00:47:03.967Z,3.41
2019-03-11T00:49:32.357Z,3.39
2019-03-11T00:52:00.741Z,3.36
2019-03-11T00:54:29.143Z,3.36
2019-03-11T00:56:57.532Z,3.36
2019-03-11T00:59:25.909Z,3.33
2019-03-11T01:01:54.293Z,3.31
2019-03-11T01:04:22.682Z,3.30
2019-03-11T01:06:51.061Z,2.48
2019-03-11T01:09:19.482Z,3.24
2019-03-11T01:11:47.852Z,3.25
2019-03-11T01:14:16.317Z,3.24
2019-03-11T01:16:44.740Z,3.21
2019-03-11T01:19:13.140Z,3.22
2019-03-11T01:21:41.530Z,3.20
2019-03-11T01:24:09.912Z,3.19
2019-03-11T01:26:38.352Z,3.19
2019-03-11T01:29:06.759Z,3.18
2019-03-11T01:31:35.125Z,3.18
2019-03-11T01:34:03.517Z,3.17
2019-03-11T01:36:31.920Z,3.17
2019-03-11T01:39:00.331Z,3.17
2019-03-11T01:41:28.708Z,3.17
2019-03-11T01:43:57.178Z,3.16
2019-03-11T01:46:25.581Z,3.15
2019-03-11T01:48:53.990Z,3.14
2019-03-11T01:51:22.448Z,3.12
2019-03-11T01:53:50.823Z,3.13
2019-03-11T01:56:19.201Z,3.10
2019-03-11T01:58:47.578Z,3.09
2019-03-11T02:01:15.960Z,3.07
2019-03-11T02:03:44.376Z,3.07
2019-03-11T02:06:12.761Z,3.07
2019-03-11T02:08:41.143Z,3.04
2019-03-11T02:11:09.522Z,3.03
2019-03-11T02:13:37.903Z,2.99
2019-03-11T02:16:06.310Z,3.00
2019-03-11T02:18:34.690Z,2.97
2019-03-11T02:21:03.186Z,2.96
2019-03-11T02:23:31.664Z,2.96
2019-03-11T02:26:00.054Z,2.95
2019-03-11T02:28:28.498Z,2.95
2019-03-11T02:30:56.881Z,2.93
2019-03-11T02:33:25.254Z,2.90
2019-03-11T02:35:53.638Z,2.92
2019-03-11T02:38:22.057Z,2.92
2019-03-11T02:40:50.459Z,2.92
2019-03-11T02:43:18.845Z,2.91
2019-03-11T02:45:47.241Z,2.91
2019-03-11T02:48:15.699Z,2.90
2019-03-11T02:50:44.076Z,2.90
2019-03-11T02:53:12.533Z,2.91
2019-03-11T02:55:40.918Z,2.89
2019-03-11T02:58:09.291Z,2.89
2019-03-11T03:00:37.662Z,2.87
2019-03-11T03:03:07.688Z,2.87
2019-03-11T03:05:37.702Z,2.83
2019-03-11T03:08:06.083Z,2.81
2019-03-11T03:10:34.538Z,2.78
2019-03-11T03:13:02.959Z,2.66
2019-03-11T03:15:31.327Z,2.77
2019-03-11T03:17:59.717Z,2.78
2019-03-11T03:20:28.100Z,2.79
2019-03-11T03:22:56.487Z,2.79
2019-03-11T03:25:33.745Z,2.79
2019-03-11T03:27:55.132Z,2.80
2019-03-11T03:30:23.655Z,2.82
2019-03-11T03:32:52.022Z,2.83
2019-03-11T03:35:20.406Z,2.85
2019-03-11T03:37:48.803Z,2.87
2019-03-11T03:40:17.278Z,2.89
2019-03-11T03:42:45.854Z,2.91
2019-03-11T03:45:24.999Z,2.92
2019-03-11T03:47:53.499Z,2.93
2019-03-11T03:50:24.900Z,2.95
2019-03-11T03:52:53.289Z,2.97
2019-03-11T03:55:21.672Z,2.98
2019-03-11T03:57:50.078Z,3.00
2019-03-11T04:00:18.456Z,3.02
2019-03-11T04:02:46.866Z,3.05
2019-03-11T04:05:15.274Z,3.05
2019-03-11T04:07:43.663Z,3.06
2019-03-11T04:10:16.433Z,3.04
2019-03-11T04:12:45.008Z,3.04
2019-03-11T04:15:13.630Z,3.04
2019-03-11T04:17:42.154Z,3.02
2019-03-11T04:20:19.275Z,3.04
2019-03-11T04:22:47.681Z,3.04
2019-03-11T04:25:16.220Z,3.05
2019-03-11T04:27:44.734Z,3.08
2019-03-11T04:30:18.211Z,3.11
2019-03-11T04:32:46.618Z,3.12
2019-03-11T04:35:15.046Z,3.14
2019-03-11T04:37:43.456Z,3.17
2019-03-11T04:40:13.667Z,3.18
2019-03-11T04:42:42.123Z,3.19
2019-03-11T04:45:17.364Z,3.19
2019-03-11T04:47:45.757Z,3.20
2019-03-11T04:50:19.130Z,3.20
2019-03-11T04:52:48.637Z,3.19
2019-03-11T04:55:17.490Z,3.17
2019-03-11T04:57:55.717Z,3.18
2019-03-11T05:00:32.213Z,3.19
2019-03-11T05:03:00.635Z,3.19
2019-03-11T05:05:28.974Z,3.20
2019-03-11T05:07:57.379Z,3.22
2019-03-11T05:10:25.763Z,3.21
2019-03-11T05:12:54.158Z,3.21
2019-03-11T05:15:23.527Z,3.21
2019-03-11T05:17:52.009Z,3.24
2019-03-11T05:20:20.538Z,3.23
2019-03-11T05:22:48.999Z,3.25
2019-03-11T05:25:17.380Z,3.25
2019-03-11T05:27:45.764Z,3.25
2019-03-11T05:30:17.949Z,3.26
2019-03-11T05:32:47.381Z,3.26
2019-03-11T05:35:15.912Z,3.26
2019-03-11T05:37:44.291Z,3.28
2019-03-11T05:40:17.371Z,3.27
2019-03-11T05:42:45.753Z,3.28
2019-03-11T05:45:17.188Z,3.31
2019-03-11T05:47:45.650Z,3.30
2019-03-11T05:50:15.277Z,3.29
2019-03-11T05:52:43.826Z,3.24
2019-03-11T05:55:13.053Z,3.21
2019-03-11T05:57:41.632Z,3.22
2019-03-11T06:00:22.739Z,3.20
2019-03-11T06:02:51.099Z,3.21
2019-03-11T06:05:19.482Z,3.21
2019-03-11T06:07:47.855Z,3.24
2019-03-11T06:10:16.639Z,3.26
2019-03-11T06:12:45.115Z,3.27
2019-03-11T06:15:16.689Z,3.29
2019-03-11T06:17:45.302Z,3.31
2019-03-11T06:20:35.255Z,3.33
2019-03-11T06:23:08.180Z,3.36
2019-03-11T06:25:36.557Z,3.39
2019-03-11T06:28:04.978Z,3.45
2019-03-11T06:30:33.730Z,3.45
2019-03-11T06:33:02.125Z,3.52
2019-03-11T06:35:30.509Z,3.52
2019-03-11T06:37:58.986Z,3.49
2019-03-11T06:40:27.448Z,3.47
2019-03-11T06:42:55.823Z,3.43
2019-03-11T06:45:24.210Z,3.41
2019-03-11T06:47:52.594Z,3.41
2019-03-11T06:50:20.995Z,3.42
2019-03-11T06:52:49.379Z,3.43
2019-03-11T06:55:17.762Z,3.45
2019-03-11T06:57:46.199Z,3.51
2019-03-11T07:00:21.543Z,3.54
2019-03-11T07:02:49.938Z,3.58
2019-03-11T07:05:20.945Z,3.63
2019-03-11T07:07:49.607Z,3.67
2019-03-11T07:10:18.223Z,3.71
2019-03-11T07:12:46.617Z,3.73
2019-03-11T07:15:16.234Z,3.76
2019-03-11T07:17:44.958Z,3.80
2019-03-11T07:20:18.509Z,3.83
2019-03-11T07:22:46.909Z,3.86
2019-03-11T07:25:15.432Z,3.86
2019-03-11T07:27:43.817Z,3.87
2019-03-11T07:30:22.562Z,3.87
2019-03-11T07:32:50.948Z,3.90
2019-03-11T07:35:19.365Z,3.93
2019-03-11T07:37:47.752Z,3.96
2019-03-11T07:40:28.529Z,3.99
2019-03-11T07:42:47.897Z,4.01
2019-03-11T07:45:17.027Z,4.04
2019-03-11T07:47:45.482Z,4.06
2019-03-11T07:50:15.808Z,3.94
2019-03-11T07:52:44.210Z,4.07
2019-03-11T07:55:13.644Z,2.85
2019-03-11T07:57:42.756Z,1.91
2019-03-11T08:00:18.255Z,1.21
2019-03-11T08:02:46.642Z,0.82
2019-03-11T08:05:15.191Z,0.59
2019-03-11T08:07:43.576Z,0.47
2019-03-11T08:10:25.216Z,0.43
2019-03-11T08:12:53.671Z,0.48
2019-03-11T08:15:22.122Z,0.51
2019-03-11T08:17:50.576Z,0.58
2019-03-11T08:20:18.966Z,0.67
2019-03-11T08:22:47.370Z,0.71
2019-03-11T08:25:16.295Z,0.79
2019-03-11T08:27:44.752Z,0.83
2019-03-11T08:30:15.906Z,0.92
2019-03-11T08:32:44.349Z,1.01
2019-03-11T08:35:13.008Z,1.10
2019-03-11T08:37:41.453Z,1.17
2019-03-11T08:40:19.494Z,1.26
2019-03-11T08:42:47.935Z,1.31
2019-03-11T08:45:17.550Z,1.36
2019-03-11T08:47:45.998Z,1.42
2019-03-11T08:50:16.199Z,1.46
2019-03-11T08:52:44.656Z,1.49
2019-03-11T08:55:13.580Z,1.55
2019-03-11T08:57:41.967Z,1.60
2019-03-11T09:00:13.361Z,1.63
2019-03-11T09:02:41.750Z,1.71
2019-03-11T09:05:11.975Z,1.31
2019-03-11T09:07:40.423Z,1.86
2019-03-11T09:10:14.419Z,1.92
2019-03-11T09:12:42.878Z,1.97
2019-03-11T09:15:15.948Z,2.07
2019-03-11T09:17:44.343Z,2.21
2019-03-11T09:20:14.844Z,2.35
2019-03-11T09:22:43.273Z,2.46
2019-03-11T09:25:14.228Z,2.52
2019-03-11T09:27:42.616Z,2.51
2019-03-11T09:30:14.083Z,2.48
2019-03-11T09:32:42.469Z,2.44
2019-03-11T09:35:10.915Z,2.29
2019-03-11T09:37:39.297Z,1.79
2019-03-11T09:40:10.930Z,1.40
2019-03-11T09:42:39.320Z,1.16
2019-03-11T09:45:13.359Z,0.99
2019-03-11T09:47:41.749Z,0.87
2019-03-11T09:50:12.367Z,0.84
2019-03-11T09:52:40.819Z,0.89
2019-03-11T09:55:17.836Z,1.05
2019-03-11T09:57:46.223Z,1.22
2019-03-11T10:00:22.718Z,1.43
2019-03-11T10:02:53.147Z,1.59
2019-03-11T10:05:21.272Z,1.68
2019-03-11T10:07:49.806Z,1.81
2019-03-11T10:10:22.688Z,1.94
2019-03-11T10:12:51.126Z,2.10
2019-03-11T10:15:20.456Z,2.23
2019-03-11T10:17:48.850Z,2.26
2019-03-11T10:20:18.291Z,2.32
2019-03-11T10:22:46.808Z,2.42
2019-03-11T10:25:17.291Z,2.37
2019-03-11T10:27:45.823Z,2.35
2019-03-11T10:30:21.951Z,2.30
2019-03-11T10:32:50.332Z,2.11
2019-03-11T10:35:31.288Z,1.79
2019-03-11T10:37:49.669Z,1.34
2019-03-11T10:40:32.148Z,0.98
2019-03-11T10:43:00.683Z,0.28
2019-03-11T10:45:31.634Z,0.94
2019-03-11T10:47:59.245Z,1.04
2019-03-11T10:50:27.626Z,1.19
2019-03-11T10:52:56.010Z,1.30
2019-03-11T10:55:25.154Z,1.37
2019-03-11T10:57:53.887Z,1.42
2019-03-11T11:00:31.051Z,1.48
2019-03-11T11:02:59.502Z,1.54
2019-03-11T11:05:28.033Z,1.60
2019-03-11T11:07:56.477Z,1.67
2019-03-11T11:10:24.858Z,1.76
2019-03-11T11:12:53.252Z,1.83
2019-03-11T11:15:25.228Z,1.87
2019-03-11T11:17:53.696Z,1.96
2019-03-11T11:20:23.344Z,2.10
2019-03-11T11:22:52.749Z,2.22
2019-03-11T11:25:25.869Z,2.42
2019-03-11T11:27:54.322Z,2.64
2019-03-11T11:30:24.747Z,2.81
2019-03-11T11:32:53.428Z,2.90
2019-03-11T11:35:22.252Z,2.99
2019-03-11T11:37:50.967Z,3.00
2019-03-11T11:40:25.662Z,2.92
2019-03-11T11:42:54.310Z,2.87
2019-03-11T11:45:24.745Z,2.89
2019-03-11T11:47:53.197Z,2.64
2019-03-11T11:50:24.797Z,2.41
2019-03-11T11:52:53.527Z,2.20
2019-03-11T11:55:22.743Z,2.16
2019-03-11T11:57:51.681Z,2.27
2019-03-11T12:00:25.733Z,2.34
2019-03-11T12:02:54.108Z,2.27
2019-03-11T12:05:22.569Z,2.04
2019-03-11T12:07:51.093Z,1.91
2019-03-11T12:10:22.520Z,1.94
2019-03-11T12:12:50.966Z,2.02
2019-03-11T12:15:19.287Z,2.03
2019-03-11T12:17:47.672Z,2.04
2019-03-11T12:20:29.173Z,2.04
2019-03-11T12:22:57.719Z,1.91
2019-03-11T12:25:26.198Z,1.88
2019-03-11T12:27:55.019Z,1.91
2019-03-11T12:30:28.150Z,1.96
2019-03-11T12:32:56.757Z,2.04
2019-03-11T12:35:25.373Z,2.09
2019-03-11T12:37:53.824Z,2.12
2019-03-11T12:40:22.380Z,2.16
2019-03-11T12:42:51.028Z,2.23
2019-03-11T12:45:23.385Z,2.26
2019-03-11T12:47:51.833Z,2.34
2019-03-11T12:50:24.165Z,2.46
2019-03-11T12:52:52.550Z,2.62
2019-03-11T12:55:21.795Z,2.82
2019-03-11T12:57:50.383Z,2.93
2019-03-11T13:00:20.042Z,3.00
2019-03-11T13:02:48.455Z,3.13
2019-03-11T13:05:17.271Z,3.10
2019-03-11T13:07:45.815Z,3.10
2019-03-11T13:10:19.761Z,3.15
2019-03-11T13:12:48.568Z,3.24
2019-03-11T13:15:17.495Z,3.25
2019-03-11T13:17:46.321Z,3.35
2019-03-11T13:20:17.741Z,3.38
2019-03-11T13:22:48.290Z,3.38
2019-03-11T13:25:16.693Z,3.47
2019-03-11T13:27:45.155Z,3.47
2019-03-11T13:30:15.521Z,3.50
2019-03-11T13:32:43.906Z,3.66
2019-03-11T13:35:13.102Z,3.84
2019-03-11T13:37:41.482Z,3.90
2019-03-11T13:40:11.015Z,3.95
2019-03-11T13:42:39.398Z,4.00
2019-03-11T13:45:13.206Z,3.99
2019-03-11T13:47:41.668Z,3.98
2019-03-11T13:50:19.513Z,4.00
2019-03-11T13:52:47.977Z,3.96
2019-03-11T13:55:19.072Z,3.95
2019-03-11T13:57:47.896Z,3.89
2019-03-11T14:00:22.112Z,3.41
2019-03-11T14:02:50.614Z,2.89
2019-03-11T14:05:19.109Z,2.53
2019-03-11T14:07:48.558Z,2.40
2019-03-11T14:10:17.477Z,2.35
2019-03-11T14:12:45.864Z,2.35
2019-03-11T14:15:16.776Z,2.42
2019-03-11T14:17:45.328Z,2.50
2019-03-11T14:20:14.667Z,2.62
2019-03-11T14:22:43.062Z,2.77
2019-03-11T14:25:13.484Z,2.91
2019-03-11T14:27:41.870Z,3.04
2019-03-11T14:30:16.135Z,3.18
2019-03-11T14:32:44.540Z,3.30
2019-03-11T14:35:13.458Z,3.37
2019-03-11T14:37:41.857Z,3.44
2019-03-11T14:40:18.175Z,3.47
2019-03-11T14:42:46.625Z,3.50
2019-03-11T14:45:19.715Z,3.54
2019-03-11T14:47:48.167Z,3.57
2019-03-11T14:50:17.901Z,3.62
2019-03-11T14:52:46.345Z,3.63
2019-03-11T14:55:15.260Z,3.61
2019-03-11T14:57:43.712Z,3.15
2019-03-11T15:00:18.522Z,2.79
2019-03-11T15:02:47.260Z,2.54
2019-03-11T15:05:17.898Z,2.40
2019-03-11T15:07:46.609Z,2.34
2019-03-11T15:10:17.000Z,2.35
2019-03-11T15:12:45.415Z,2.35
2019-03-11T15:15:16.668Z,2.33
2019-03-11T15:17:45.199Z,2.33
2019-03-11T15:20:13.855Z,2.36
2019-03-11T15:22:42.285Z,2.44
2019-03-11T15:25:12.312Z,2.51
2019-03-11T15:27:40.863Z,2.56
2019-03-11T15:30:12.430Z,2.51
2019-03-11T15:32:40.813Z,2.63
2019-03-11T15:35:10.339Z,2.66
2019-03-11T15:37:38.739Z,2.74
2019-03-11T15:40:10.120Z,2.84
2019-03-11T15:42:38.506Z,2.89
2019-03-11T15:45:09.701Z,2.93
2019-03-11T15:47:38.079Z,2.93
2019-03-11T15:50:09.509Z,2.93
2019-03-11T15:52:37.889Z,2.95
2019-03-11T15:55:09.811Z,2.97
2019-03-11T15:57:39.196Z,2.99
2019-03-11T16:00:10.880Z,2.97
2019-03-11T16:02:39.263Z,2.90
2019-03-11T16:05:07.710Z,2.85
2019-03-11T16:07:36.090Z,2.77
2019-03-11T16:10:16.256Z,2.69
2019-03-11T16:12:37.385Z,2.62
2019-03-11T16:15:07.811Z,2.58
2019-03-11T16:17:36.200Z,2.50
2019-03-11T16:20:12.834Z,2.42
2019-03-11T16:22:41.214Z,2.33
2019-03-11T16:25:11.034Z,2.23
2019-03-11T16:27:39.490Z,2.17
2019-03-11T16:30:24.816Z,2.13
2019-03-11T16:32:59.400Z,2.12
2019-03-11T16:35:25.158Z,2.11
2019-03-11T16:37:53.540Z,2.12
2019-03-11T16:40:21.999Z,2.14
2019-03-11T16:42:50.411Z,2.19
2019-03-11T16:45:19.929Z,2.20
2019-03-11T16:47:48.881Z,2.20
2019-03-11T16:50:29.404Z,2.23
2019-03-11T16:52:57.777Z,2.26
2019-03-11T16:55:30.516Z,2.29
2019-03-11T16:57:59.865Z,2.30
2019-03-11T17:00:35.742Z,2.34
2019-03-11T17:03:04.131Z,2.34
2019-03-11T17:05:32.647Z,2.33
2019-03-11T17:08:01.021Z,2.34
2019-03-11T17:10:29.476Z,2.34
2019-03-11T17:12:59.272Z,2.33
2019-03-11T17:15:27.652Z,2.33
2019-03-11T17:17:56.044Z,2.35
2019-03-11T17:20:24.502Z,2.37
2019-03-11T17:22:52.876Z,2.38
2019-03-11T17:25:21.290Z,2.39
2019-03-11T17:27:49.666Z,2.40
2019-03-11T17:30:20.365Z,2.42
2019-03-11T17:32:48.815Z,2.44
2019-03-11T17:35:17.550Z,2.44
2019-03-11T17:37:46.202Z,2.46
2019-03-11T17:40:19.041Z,2.47
2019-03-11T17:42:47.809Z,2.48
2019-03-11T17:45:16.668Z,2.51
2019-03-11T17:47:45.154Z,2.53
2019-03-11T17:50:19.062Z,2.56
2019-03-11T17:52:47.440Z,2.58
2019-03-11T17:55:17.278Z,2.60
2019-03-11T17:57:45.802Z,2.61
2019-03-11T18:00:21.096Z,2.63
2019-03-11T18:02:49.544Z,2.66
2019-03-11T18:05:18.137Z,2.58
2019-03-11T18:07:46.598Z,2.72
2019-03-11T18:10:15.151Z,2.77
2019-03-11T18:12:43.620Z,2.77
2019-03-11T18:15:13.539Z,2.77
2019-03-11T18:17:42.054Z,2.78
2019-03-11T18:20:20.638Z,2.78
2019-03-11T18:22:49.272Z,2.78
2019-03-11T18:25:18.812Z,2.77
2019-03-11T18:27:47.197Z,2.77
2019-03-11T18:30:23.091Z,2.79
2019-03-11T18:32:51.471Z,2.80
2019-03-11T18:35:19.989Z,2.81
2019-03-11T18:37:48.430Z,2.81
2019-03-11T18:40:18.042Z,2.79
2019-03-11T18:42:46.671Z,2.76
2019-03-11T18:45:15.787Z,2.74
2019-03-11T18:47:44.232Z,2.70
2019-03-11T18:50:15.614Z,2.65
2019-03-11T18:52:44.015Z,2.67
2019-03-11T18:55:12.544Z,2.65
2019-03-11T18:57:40.912Z,2.63
2019-03-11T19:00:15.165Z,2.64
2019-03-11T19:02:43.554Z,2.63
2019-03-11T19:05:17.696Z,2.60
2019-03-11T19:07:46.156Z,2.60
2019-03-11T19:10:15.696Z,2.58
2019-03-11T19:12:44.144Z,2.59
2019-03-11T19:15:20.708Z,2.57
2019-03-11T19:17:49.160Z,2.58
2019-03-11T19:20:22.940Z,2.57
2019-03-11T19:22:51.432Z,2.58
2019-03-11T19:25:19.832Z,2.58
2019-03-11T19:27:49.177Z,2.56
2019-03-11T19:30:22.875Z,2.52
2019-03-11T19:32:51.231Z,2.49
2019-03-11T19:35:20.173Z,2.46
2019-03-11T19:37:48.673Z,2.45
2019-03-11T19:40:19.397Z,2.44
2019-03-11T19:42:47.862Z,2.44
2019-03-11T19:45:17.018Z,2.44
2019-03-11T19:47:45.568Z,2.44
2019-03-11T19:50:16.914Z,2.43
2019-03-11T19:52:57.217Z,2.42
2019-03-11T19:55:15.652Z,2.40
2019-03-11T19:57:44.191Z,2.38
2019-03-11T20:00:18.534Z,2.37
2019-03-11T20:02:47.079Z,2.34
2019-03-11T20:05:18.539Z,2.34
2019-03-11T20:07:46.988Z,2.35
2019-03-11T20:10:16.040Z,2.35
2019-03-11T20:12:44.491Z,2.35
2019-03-11T20:15:13.494Z,2.37
2019-03-11T20:17:41.932Z,2.40
2019-03-11T20:20:15.469Z,2.40
2019-03-11T20:22:43.951Z,2.41
2019-03-11T20:25:15.028Z,2.44
2019-03-11T20:27:43.407Z,2.45
2019-03-11T20:30:17.497Z,2.47
2019-03-11T20:32:45.937Z,2.47
2019-03-11T20:35:17.319Z,2.48
2019-03-11T20:37:44.560Z,2.44
2019-03-11T20:40:13.381Z,2.50
2019-03-11T20:42:41.912Z,2.51
2019-03-11T20:45:15.065Z,2.52
2019-03-11T20:47:43.418Z,2.53
2019-03-11T20:50:13.590Z,2.52
2019-03-11T20:52:41.943Z,2.55
2019-03-11T20:55:15.752Z,2.57
2019-03-11T20:57:44.176Z,2.60
2019-03-11T21:00:20.195Z,2.60
2019-03-11T21:02:48.850Z,2.62
2019-03-11T21:05:21.299Z,2.62
2019-03-11T21:07:50.559Z,2.63
2019-03-11T21:10:19.327Z,2.61
2019-03-11T21:12:47.801Z,2.59
2019-03-11T21:15:16.812Z,2.54
2019-03-11T21:17:45.419Z,2.47
2019-03-11T21:20:15.302Z,2.43
2019-03-11T21:22:43.731Z,2.37
2019-03-11T21:25:21.977Z,2.33
2019-03-11T21:27:51.318Z,2.21
2019-03-11T21:30:22.919Z,2.30
2019-03-11T21:32:52.730Z,2.29
2019-03-11T21:35:21.205Z,2.29
2019-03-11T21:37:49.638Z,2.29
2019-03-11T21:40:24.577Z,2.27
2019-03-11T21:42:53.145Z,2.13
2019-03-11T21:45:33.471Z,2.31
2019-03-11T21:47:52.774Z,2.33
2019-03-11T21:50:28.378Z,2.35
2019-03-11T21:52:56.759Z,2.39
2019-03-11T21:55:25.133Z,2.42
2019-03-11T21:57:53.635Z,2.47
2019-03-11T22:00:33.357Z,2.49
2019-03-11T22:02:53.754Z,2.48
2019-03-11T22:05:22.195Z,2.45
2019-03-11T22:07:50.647Z,2.41
2019-03-11T22:10:19.264Z,2.36
2019-03-11T22:12:47.863Z,2.32
2019-03-11T22:15:19.290Z,2.29
2019-03-11T22:17:48.660Z,2.23
2019-03-11T22:20:17.679Z,2.19
2019-03-11T22:22:46.062Z,2.16
2019-03-11T22:25:18.424Z,2.10
2019-03-11T22:27:46.805Z,2.10
2019-03-11T22:30:25.319Z,2.10
2019-03-11T22:32:54.652Z,2.10
2019-03-11T22:35:23.890Z,2.11
2019-03-11T22:37:52.284Z,2.13
2019-03-11T22:40:20.919Z,2.15
2019-03-11T22:42:49.358Z,2.16
2019-03-11T22:45:22.213Z,2.19
2019-03-11T22:47:52.792Z,2.22
2019-03-11T22:50:21.738Z,2.28
2019-03-11T22:52:51.185Z,2.33
2019-03-11T22:55:19.972Z,2.40
2019-03-11T22:57:48.476Z,2.48
2019-03-11T23:00:41.549Z,2.51
2019-03-11T23:03:10.680Z,2.53
2019-03-11T23:05:39.057Z,2.48
2019-03-11T23:08:07.453Z,2.42
2019-03-11T23:10:35.826Z,2.37
2019-03-11T23:13:04.284Z,2.27
2019-03-11T23:15:32.662Z,2.16
2019-03-11T23:18:01.050Z,2.07
2019-03-11T23:20:29.493Z,1.99
2019-03-11T23:22:57.830Z,1.93
2019-03-11T23:25:26.208Z,1.89
2019-03-11T23:27:54.659Z,1.40
2019-03-11T23:30:23.042Z,1.85
2019-03-11T23:32:51.431Z,1.84
2019-03-11T23:35:19.815Z,1.85
2019-03-11T23:37:48.199Z,1.84
2019-03-11T23:40:16.590Z,1.84
2019-03-11T23:42:45.003Z,1.85
2019-03-11T23:45:13.550Z,1.84
2019-03-11T23:47:41.964Z,1.84
2019-03-11T23:50:11.899Z,1.83
2019-03-11T23:52:40.367Z,1.84
2019-03-11T23:55:12.566Z,1.84
2019-03-11T23:57:40.948Z,1.86
